Time;durP1;ratioP1;P1;durP2;ratioP2;P2;SDS_P1;SDS_P2;PMS_P1;PMS_P2;Temp;Humidity;BMP_temperature;BMP_pressure;BME280_temperature;BME280_humidity;BME280_pressure;Samples;Min_cycle;Max_cycle;Signal;HPM_P1;HPM_P2
2023/09/19 00:00:36;;;;;;;;;;;;;;;18.81;100.00;99398.78;4991683;28;19917;-80
2023/09/19 00:03:02;;;;;;;;;;;;;;;18.61;100.00;99402.41;4991362;28;20352;-81
2023/09/19 00:05:28;;;;;;;;;;;;;;;18.60;100.00;99395.41;4991274;28;19961;-80
2023/09/19 00:07:54;;;;;;;;;;;;;;;18.68;100.00;99392.53;4991236;28;19928;-80
2023/09/19 00:10:21;;;;;;;;;;;;;;;18.72;100.00;99394.66;4991105;28;19930;-81
2023/09/19 00:12:47;;;;;;;;;;;;;;;18.70;100.00;99395.84;4990584;28;19925;-81
2023/09/19 00:15:12;;;;;;;;;;;;;;;18.65;100.00;99388.44;4991425;28;20285;-80
2023/09/19 00:17:40;;;;;;;;;;;;;;;18.61;100.00;99392.53;4991795;28;20346;-81
2023/09/19 00:20:12;;;;;;;;;;;;;;;18.45;100.00;99386.66;4991138;28;19925;-80
2023/09/19 00:22:42;;;;;;;;;;;;;;;18.45;100.00;99394.66;4991599;28;19922;-80
2023/09/19 00:25:07;;;;;;;;;;;;;;;18.44;100.00;99393.84;4991086;28;19945;-80
2023/09/19 00:27:35;;;;;;;;;;;;;;;18.48;100.00;99386.25;4991436;28;20036;-80
2023/09/19 00:30:00;;;;;;;;;;;;;;;18.59;100.00;99383.06;4991106;28;19933;-80
2023/09/19 00:32:31;;;;;;;;;;;;;;;18.61;100.00;99381.03;4991217;28;19925;-81
2023/09/19 00:34:57;;;;;;;;;;;;;;;18.62;100.00;99388.00;4991054;28;19922;-80
2023/09/19 00:37:23;;;;;;;;;;;;;;;18.57;100.00;99390.44;4989645;28;19922;-80
2023/09/19 00:39:48;;;;;;;;;;;;;;;18.50;100.00;99389.53;4989844;28;20293;-80
2023/09/19 00:42:21;;;;;;;;;;;;;;;18.49;100.00;99379.91;4990676;28;19937;-80
2023/09/19 00:44:47;;;;;;;;;;;;;;;18.50;100.00;99394.88;4991207;28;19929;-81
2023/09/19 00:47:17;;;;;;;;;;;;;;;18.51;100.00;99393.88;4990899;28;19925;-81
2023/09/19 00:49:52;;;;;;;;;;;;;;;18.59;100.00;99385.72;4991404;28;19933;-80
2023/09/19 00:52:22;;;;;;;;;;;;;;;18.68;100.00;99376.50;4990457;28;19926;-79
2023/09/19 00:54:48;;;;;;;;;;;;;;;18.58;100.00;99386.75;4990630;28;20004;-81
2023/09/19 00:57:14;;;;;;;;;;;;;;;18.53;100.00;99394.50;4990561;28;20028;-80
2023/09/19 00:59:40;;;;;;;;;;;;;;;18.59;100.00;99397.25;4981983;28;19933;-80
2023/09/19 01:02:06;;;;;;;;;;;;;;;18.59;100.00;99393.75;4988466;28;19926;-80
2023/09/19 01:04:32;;;;;;;;;;;;;;;18.63;100.00;99395.00;4988484;28;19969;-80
2023/09/19 01:06:57;;;;;;;;;;;;;;;18.58;100.00;99397.44;4994080;28;19922;-79
2023/09/19 01:09:23;;;;;;;;;;;;;;;18.52;100.00;99388.34;4995061;28;19957;-81
2023/09/19 01:11:50;;;;;;;;;;;;;;;18.58;100.00;99402.78;4995055;28;19981;-80
2023/09/19 01:14:37;;;;;;;;;;;;;;;18.63;100.00;99408.34;4994295;28;19922;-80
2023/09/19 01:17:06;;;;;;;;;;;;;;;18.67;100.00;99413.09;4991409;28;19922;-80
2023/09/19 01:19:58;;;;;;;;;;;;;;;18.71;100.00;99403.69;4994131;28;19929;-81
2023/09/19 01:22:35;;;;;;;;;;;;;;;18.63;100.00;99411.03;4999706;28;19949;-79
2023/09/19 01:25:18;;;;;;;;;;;;;;;18.70;100.00;99406.56;5009549;28;20374;-80
2023/09/19 01:27:47;;;;;;;;;;;;;;;18.65;100.00;99414.34;4996034;28;19937;-80
2023/09/19 01:30:14;;;;;;;;;;;;;;;18.58;100.00;99408.97;4994640;28;20448;-80
2023/09/19 01:32:41;;;;;;;;;;;;;;;18.61;100.00;99402.41;4996201;28;20401;-79
2023/09/19 01:35:08;;;;;;;;;;;;;;;18.70;100.00;99395.84;4993788;28;20013;-81
2023/09/19 01:37:33;;;;;;;;;;;;;;;18.62;100.00;99415.53;4993933;28;19922;-79
2023/09/19 01:40:03;;;;;;;;;;;;;;;18.66;100.00;99411.47;4993831;28;19933;-81
2023/09/19 01:42:36;;;;;;;;;;;;;;;18.68;100.00;99419.28;4994221;28;20378;-81
2023/09/19 01:45:05;;;;;;;;;;;;;;;18.56;100.00;99415.50;4994079;28;19929;-81
2023/09/19 01:47:35;;;;;;;;;;;;;;;18.56;100.00;99410.16;4993668;28;20386;-80
2023/09/19 01:50:19;;;;;;;;;;;;;;;18.51;100.00;99412.56;4993453;28;20020;-80
2023/09/19 01:53:00;;;;;;;;;;;;;;;18.45;100.00;99414.19;4993191;28;20394;-80
2023/09/19 01:55:28;;;;;;;;;;;;;;;18.39;100.00;99410.47;4990558;28;20379;-80
2023/09/19 01:58:08;;;;;;;;;;;;;;;18.49;100.00;99403.94;4992265;28;20301;-80
2023/09/19 02:00:36;;;;;;;;;;;;;;;18.53;100.00;99405.19;4991644;28;20274;-80
2023/09/19 02:03:02;;;;;;;;;;;;;;;18.47;100.00;99397.97;4993311;28;20343;-80
2023/09/19 02:05:28;;;;;;;;;;;;;;;18.49;100.00;99409.28;4993085;28;19922;-79
2023/09/19 02:07:54;;;;;;;;;;;;;;;18.54;100.00;99407.69;4993310;28;19922;-80
2023/09/19 02:10:19;;;;;;;;;;;;;;;18.55;100.00;99408.53;4999876;28;19925;-80
2023/09/19 02:12:45;;;;;;;;;;;;;;;18.55;100.00;99414.72;4982488;28;19922;-80
2023/09/19 02:15:15;;;;;;;;;;;;;;;18.56;100.00;99415.50;4998899;28;19922;-78
2023/09/19 02:17:42;;;;;;;;;;;;;;;18.55;100.00;99411.22;4982387;28;19925;-78
2023/09/19 02:20:10;;;;;;;;;;;;;;;18.54;100.00;99412.19;4983449;28;20354;-78
2023/09/19 02:22:35;;;;;;;;;;;;;;;18.58;100.00;99414.31;4992652;28;20341;-78
2023/09/19 02:25:01;;;;;;;;;;;;;;;18.59;100.00;99415.13;4992608;28;20012;-79
2023/09/19 02:27:27;;;;;;;;;;;;;;;18.62;100.00;99414.72;5016042;28;20028;-79
2023/09/19 02:29:52;;;;;;;;;;;;;;;18.67;100.00;99412.31;4999895;28;20020;-79
2023/09/19 02:32:18;;;;;;;;;;;;;;;18.70;100.00;99411.91;4981169;28;19929;-79
2023/09/19 02:34:44;;;;;;;;;;;;;;;18.72;100.00;99415.22;4984059;28;19936;-79
2023/09/19 02:37:10;;;;;;;;;;;;;;;18.72;100.00;99410.69;4982119;28;19929;-79
2023/09/19 02:39:35;;;;;;;;;;;;;;;18.70;100.00;99411.91;4997999;28;19928;-79
2023/09/19 02:42:01;;;;;;;;;;;;;;;18.70;100.00;99417.25;4982350;28;19965;-79
2023/09/19 02:44:27;;;;;;;;;;;;;;;18.70;100.00;99414.56;4981507;28;19926;-79
2023/09/19 02:46:52;;;;;;;;;;;;;;;18.74;100.00;99415.81;4983514;28;19970;-79
2023/09/19 02:49:18;;;;;;;;;;;;;;;18.71;100.00;99414.38;5012429;28;20383;-80
2023/09/19 02:51:43;;;;;;;;;;;;;;;18.70;100.00;99395.84;4990378;28;20399;-80
2023/09/19 02:54:09;;;;;;;;;;;;;;;18.72;100.00;99396.50;4999084;28;19926;-80
2023/09/19 02:56:35;;;;;;;;;;;;;;;18.75;100.00;99396.91;5014088;28;19921;-80
2023/09/19 02:59:00;;;;;;;;;;;;;;;18.79;100.00;99400.03;4996798;28;20017;-80
2023/09/19 03:01:28;;;;;;;;;;;;;;;18.83;100.00;99397.78;4982597;28;19925;-79
2023/09/19 03:03:54;;;;;;;;;;;;;;;18.80;100.00;99396.31;4996260;28;19930;-80
2023/09/19 03:06:20;;;;;;;;;;;;;;;18.78;100.00;99393.03;5003197;28;19930;-80
2023/09/19 03:08:46;;;;;;;;;;;;;;;18.79;100.00;99395.47;5015346;28;19946;-81
2023/09/19 03:11:14;;;;;;;;;;;;;;;18.74;100.00;99387.25;4979953;28;19972;-81
2023/09/19 03:13:42;;;;;;;;;;;;;;;18.68;100.00;99388.03;4998019;28;19953;-80
2023/09/19 03:16:08;;;;;;;;;;;;;;;18.65;100.00;99392.97;4981942;28;19926;-80
2023/09/19 03:18:34;;;;;;;;;;;;;;;18.68;100.00;99397.91;5013434;28;19922;-79
2023/09/19 03:21:00;;;;;;;;;;;;;;;18.73;100.00;99401.63;5017473;28;19932;-79
2023/09/19 03:23:26;;;;;;;;;;;;;;;18.75;100.00;99396.91;4998807;28;20018;-79
2023/09/19 03:25:52;;;;;;;;;;;;;;;18.74;100.00;99392.59;4983945;28;19922;-79
2023/09/19 03:28:18;;;;;;;;;;;;;;;18.70;100.00;99382.50;5014760;28;19922;-79
2023/09/19 03:30:44;;;;;;;;;;;;;;;18.66;100.00;99389.28;4984805;28;19999;-79
2023/09/19 03:33:11;;;;;;;;;;;;;;;18.58;100.00;99392.09;5018372;28;19933;-79
2023/09/19 03:35:39;;;;;;;;;;;;;;;18.57;100.00;99401.13;5001222;28;19929;-79
2023/09/19 03:38:05;;;;;;;;;;;;;;;18.51;100.00;99391.19;4985351;28;20310;-79
2023/09/19 03:40:30;;;;;;;;;;;;;;;18.57;100.00;99395.78;4986449;28;20029;-79
2023/09/19 03:42:56;;;;;;;;;;;;;;;18.55;100.00;99400.53;4999956;28;19929;-79
2023/09/19 03:45:21;;;;;;;;;;;;;;;18.40;100.00;99400.59;4986960;28;20049;-79
2023/09/19 03:47:50;;;;;;;;;;;;;;;18.42;100.00;99404.75;4995433;28;20056;-79
2023/09/19 03:50:18;;;;;;;;;;;;;;;18.36;100.00;99400.19;4994551;28;20341;-80
2023/09/19 03:52:44;;;;;;;;;;;;;;;18.36;100.00;99397.50;4994577;28;19926;-80
2023/09/19 03:55:09;;;;;;;;;;;;;;;18.39;100.00;99398.94;4994487;28;19968;-80
2023/09/19 03:57:37;;;;;;;;;;;;;;;18.36;100.00;99394.84;4996047;28;19944;-80
2023/09/19 04:00:04;;;;;;;;;;;;;;;18.29;100.00;99393.97;5002093;28;19922;-80
2023/09/19 04:02:38;;;;;;;;;;;;;;;18.25;100.00;99391.88;4985591;28;19929;-80
2023/09/19 04:05:04;;;;;;;;;;;;;;;18.22;100.00;99393.09;4984947;28;19922;-79
2023/09/19 04:07:29;;;;;;;;;;;;;;;18.28;100.00;99400.31;4985695;28;19925;-79
2023/09/19 04:09:55;;;;;;;;;;;;;;;18.22;100.00;99397.59;4997970;28;19929;-78
2023/09/19 04:12:21;;;;;;;;;;;;;;;18.30;100.00;99395.63;4986293;28;19949;-78
2023/09/19 04:14:46;;;;;;;;;;;;;;;18.34;100.00;99396.88;4998132;28;19946;-81
2023/09/19 04:17:12;;;;;;;;;;;;;;;18.37;100.00;99391.16;4999704;28;19929;-81
2023/09/19 04:19:37;;;;;;;;;;;;;;;18.38;100.00;99391.94;4998341;28;19929;-80
2023/09/19 04:22:04;;;;;;;;;;;;;;;18.38;100.00;99392.78;4991205;28;19921;-80
2023/09/19 04:24:30;;;;;;;;;;;;;;;18.34;100.00;99398.72;4992417;28;19968;-80
2023/09/19 04:26:58;;;;;;;;;;;;;;;18.37;100.00;99395.66;5002497;28;19922;-80
2023/09/19 04:29:24;;;;;;;;;;;;;;;18.40;100.00;99389.91;4990698;28;19968;-79
2023/09/19 04:31:49;;;;;;;;;;;;;;;18.42;100.00;99394.06;4988756;28;19930;-81
2023/09/19 04:34:15;;;;;;;;;;;;;;;18.46;100.00;99389.13;4990598;28;19968;-79
2023/09/19 04:36:41;;;;;;;;;;;;;;;18.49;100.00;99393.25;4991054;28;19929;-79
2023/09/19 04:39:07;;;;;;;;;;;;;;;18.41;100.00;99392.41;4990895;28;19929;-79
2023/09/19 04:41:33;;;;;;;;;;;;;;;18.34;100.00;99396.03;4994544;28;19922;-80
2023/09/19 04:43:59;;;;;;;;;;;;;;;18.31;100.00;99401.78;4995256;28;20275;-80
2023/09/19 04:46:24;;;;;;;;;;;;;;;18.34;100.00;99404.88;4994565;28;20345;-81
2023/09/19 04:48:50;;;;;;;;;;;;;;;18.34;100.00;99407.56;4996154;28;20017;-85
2023/09/19 04:51:16;;;;;;;;;;;;;;;18.32;100.00;99406.91;5026365;28;19953;-86
2023/09/19 04:53:42;;;;;;;;;;;;;;;18.36;100.00;99420.72;4995908;28;19922;-80
2023/09/19 04:56:07;;;;;;;;;;;;;;;18.32;100.00;99420.28;4987470;28;19922;-80
2023/09/19 04:58:33;;;;;;;;;;;;;;;18.33;100.00;99416.59;4984212;28;19953;-82
2023/09/19 05:01:02;;;;;;;;;;;;;;;18.40;100.00;99424.66;4988841;28;19934;-81
2023/09/19 05:03:28;;;;;;;;;;;;;;;18.43;100.00;99429.63;4990321;28;19973;-81
2023/09/19 05:05:54;;;;;;;;;;;;;;;18.48;100.00;99423.66;4992100;28;19926;-84
2023/09/19 05:08:19;;;;;;;;;;;;;;;18.45;100.00;99424.06;5011589;23;19925;-79
2023/09/19 05:10:45;;;;;;;;;;;;;;;18.50;100.00;99426.94;5030507;28;20519;-77
2023/09/19 05:13:11;;;;;;;;;;;;;;;18.54;100.00;99434.41;5032260;28;19921;-79
2023/09/19 05:15:37;;;;;;;;;;;;;;;18.57;100.00;99434.03;5031491;28;19931;-76
2023/09/19 05:18:03;;;;;;;;;;;;;;;18.59;100.00;99441.84;5033206;28;20011;-76
2023/09/19 05:20:33;;;;;;;;;;;;;;;18.54;100.00;99444.25;5034855;28;20288;-75
2023/09/19 05:23:01;;;;;;;;;;;;;;;18.53;100.00;99442.59;5033271;28;20340;-75
2023/09/19 05:25:29;;;;;;;;;;;;;;;18.54;100.00;99444.25;5031719;28;19921;-75
2023/09/19 05:27:56;;;;;;;;;;;;;;;18.56;100.00;99447.56;5030586;28;19936;-75
2023/09/19 05:30:21;;;;;;;;;;;;;;;18.47;100.00;99448.72;5029388;28;19936;-76
2023/09/19 05:32:47;;;;;;;;;;;;;;;18.36;100.00;99453.59;5030940;28;19921;-78
2023/09/19 05:35:13;;;;;;;;;;;;;;;18.34;100.00;99452.97;5032810;28;19921;-77
2023/09/19 05:37:38;;;;;;;;;;;;;;;18.26;100.00;99458.44;5031504;28;19972;-74
2023/09/19 05:40:11;;;;;;;;;;;;;;;18.23;100.00;99458.84;5032260;28;19979;-77
2023/09/19 05:42:39;;;;;;;;;;;;;;;18.23;100.00;99464.19;5031645;28;20432;-76
2023/09/19 05:45:06;;;;;;;;;;;;;;;18.30;100.00;99469.59;5032289;28;20383;-77
2023/09/19 05:47:31;;;;;;;;;;;;;;;18.30;100.00;99470.41;5032358;28;19921;-76
2023/09/19 05:49:57;;;;;;;;;;;;;;;18.27;100.00;99476.13;5032338;28;20059;-76
2023/09/19 05:52:22;;;;;;;;;;;;;;;18.23;100.00;99474.88;5031621;28;19931;-77
2023/09/19 05:54:49;;;;;;;;;;;;;;;18.22;100.00;99481.22;5032442;28;19929;-77
2023/09/19 05:57:15;;;;;;;;;;;;;;;18.21;100.00;99490.25;5031969;28;20338;-78
2023/09/19 05:59:42;;;;;;;;;;;;;;;18.28;100.00;99487.63;5032283;28;20000;-77
2023/09/19 06:02:09;;;;;;;;;;;;;;;18.30;100.00;99481.09;5031727;28;19932;-78
2023/09/19 06:04:35;;;;;;;;;;;;;;;18.33;100.00;99477.19;5031767;28;19921;-78
2023/09/19 06:07:00;;;;;;;;;;;;;;;18.31;100.00;99482.75;5031549;28;20025;-78
2023/09/19 06:09:27;;;;;;;;;;;;;;;18.26;100.00;99487.81;5035460;28;20385;-78
2023/09/19 06:11:53;;;;;;;;;;;;;;;18.27;100.00;99486.81;5031031;28;19928;-76
2023/09/19 06:14:18;;;;;;;;;;;;;;;18.33;100.00;99491.38;5031275;28;19921;-78
2023/09/19 06:16:45;;;;;;;;;;;;;;;18.37;100.00;99498.00;5032268;28;19921;-79
2023/09/19 06:19:10;;;;;;;;;;;;;;;18.41;100.00;99498.44;5031724;28;19932;-79
2023/09/19 06:21:36;;;;;;;;;;;;;;;18.40;100.00;99492.25;5031981;28;19955;-79
2023/09/19 06:24:02;;;;;;;;;;;;;;;18.34;100.00;99498.38;5032215;28;19983;-78
2023/09/19 06:26:27;;;;;;;;;;;;;;;18.34;100.00;99498.38;5031711;28;20384;-77
2023/09/19 06:28:52;;;;;;;;;;;;;;;18.33;100.00;99495.91;5054372;28;19921;-78
2023/09/19 06:31:18;;;;;;;;;;;;;;;18.33;100.00;99491.38;5022278;28;19929;-78
2023/09/19 06:33:43;;;;;;;;;;;;;;;18.35;100.00;99491.19;5020783;28;19921;-78
2023/09/19 06:36:09;;;;;;;;;;;;;;;18.35;100.00;99488.53;5020941;28;19983;-78
2023/09/19 06:38:36;;;;;;;;;;;;;;;18.40;100.00;99494.09;5030785;28;19921;-78
2023/09/19 06:41:04;;;;;;;;;;;;;;;18.46;100.00;99492.50;5031296;28;19960;-79
2023/09/19 06:43:30;;;;;;;;;;;;;;;18.45;100.00;99488.16;5031291;28;20423;-78
2023/09/19 06:45:56;;;;;;;;;;;;;;;18.52;100.00;99494.41;5031527;28;19967;-78
2023/09/19 06:48:21;;;;;;;;;;;;;;;18.51;100.00;99493.56;5030686;28;19925;-77
2023/09/19 06:50:48;;;;;;;;;;;;;;;18.51;100.00;99484.72;5030885;28;19925;-77
2023/09/19 06:53:13;;;;;;;;;;;;;;;18.57;100.00;99481.31;5030272;28;20004;-77
2023/09/19 06:55:38;;;;;;;;;;;;;;;18.57;100.00;99492.00;5031560;28;19983;-77
2023/09/19 06:58:06;;;;;;;;;;;;;;;18.60;100.00;99487.09;5030913;28;19921;-76
2023/09/19 07:00:32;;;;;;;;;;;;;;;18.61;100.00;99487.94;5030292;28;19925;-76
2023/09/19 07:03:08;;;;;;;;;;;;;;;18.62;100.00;99494.91;5027640;28;19928;-76
2023/09/19 07:05:36;;;;;;;;;;;;;;;18.62;100.00;99482.38;5029952;28;20015;-77
2023/09/19 07:08:01;;;;;;;;;;;;;;;18.61;100.00;99495.94;5028382;28;20384;-78
2023/09/19 07:10:30;;;;;;;;;;;;;;;18.61;100.00;99486.09;5030058;28;19929;-77
2023/09/19 07:12:55;;;;;;;;;;;;;;;18.62;100.00;99500.25;5030545;28;19927;-78
2023/09/19 07:15:22;;;;;;;;;;;;;;;18.62;100.00;99494.91;5026029;28;20019;-77
2023/09/19 07:17:48;;;;;;;;;;;;;;;18.60;100.00;99508.47;5029462;28;19925;-76
2023/09/19 07:20:16;;;;;;;;;;;;;;;18.58;100.00;99509.69;5029758;28;19921;-77
2023/09/19 07:22:41;;;;;;;;;;;;;;;18.65;100.00;99515.91;5029803;28;19928;-75
2023/09/19 07:25:07;;;;;;;;;;;;;;;18.74;100.00;99517.38;5029598;28;19925;-74
2023/09/19 07:27:32;;;;;;;;;;;;;;;18.69;100.00;99522.50;5029731;28;19998;-76
2023/09/19 07:29:58;;;;;;;;;;;;;;;18.64;100.00;99524.94;5030150;28;20020;-74
2023/09/19 07:32:24;;;;;;;;;;;;;;;18.62;100.00;99521.63;5028795;28;19943;-76
2023/09/19 07:34:49;;;;;;;;;;;;;;;18.62;100.00;99529.63;5029444;28;20447;-75
2023/09/19 07:37:16;;;;;;;;;;;;;;;18.65;100.00;99526.59;5029167;28;20293;-75
2023/09/19 07:39:42;;;;;;;;;;;;;;;18.71;100.00;99531.16;5029464;28;19921;-75
2023/09/19 07:42:07;;;;;;;;;;;;;;;18.77;100.00;99530.38;5029487;28;20016;-75
2023/09/19 07:44:32;;;;;;;;;;;;;;;18.82;100.00;99530.63;5029894;28;19955;-76
2023/09/19 07:46:58;;;;;;;;;;;;;;;18.87;100.00;99533.50;5030221;28;20367;-76
2023/09/19 07:49:23;;;;;;;;;;;;;;;18.92;100.00;99533.75;5029033;28;19921;-76
2023/09/19 07:51:48;;;;;;;;;;;;;;;18.95;100.00;99533.38;5029592;28;19932;-75
2023/09/19 07:54:14;;;;;;;;;;;;;;;18.95;100.00;99541.41;5029272;28;19983;-76
2023/09/19 07:56:40;;;;;;;;;;;;;;;18.97;100.00;99547.34;5029640;28;19960;-76
2023/09/19 07:59:05;;;;;;;;;;;;;;;18.97;100.00;99547.34;5029131;28;19967;-76
2023/09/19 08:01:31;;;;;;;;;;;;;;;19.00;100.00;99541.63;5029474;28;19928;-76
2023/09/19 08:03:56;;;;;;;;;;;;;;;19.00;100.00;99541.63;5029477;28;19929;-75
2023/09/19 08:06:22;;;;;;;;;;;;;;;19.02;100.00;99539.59;5029315;28;19921;-77
2023/09/19 08:08:50;;;;;;;;;;;;;;;19.05;100.00;99543.69;5028821;28;19964;-77
2023/09/19 08:11:21;;;;;;;;;;;;;;;19.07;100.00;99547.84;5029046;28;20344;-76
2023/09/19 08:13:48;;;;;;;;;;;;;;;19.03;100.00;99557.25;5029498;28;19929;-76
2023/09/19 08:16:22;;;;;;;;;;;;;;;19.01;100.00;99550.47;5031900;28;19976;-76
2023/09/19 08:18:48;;;;;;;;;;;;;;;19.06;100.00;99551.53;5040275;28;19925;-77
2023/09/19 08:21:15;;;;;;;;;;;;;;;19.11;100.00;99558.97;5025659;28;19928;-76
2023/09/19 08:23:41;;;;;;;;;;;;;;;19.17;100.00;99568.88;5057045;28;19921;-76
2023/09/19 08:26:07;;;;;;;;;;;;;;;19.21;100.00;99554.91;5026937;28;20008;-76
2023/09/19 08:28:33;;;;;;;;;;;;;;;19.27;100.00;99563.97;5032870;28;19931;-77
2023/09/19 08:31:05;;;;;;;;;;;;;;;19.30;100.00;99565.44;5033399;28;19921;-75
2023/09/19 08:33:34;;;;;;;;;;;;;;;19.18;100.00;99570.53;5033311;28;19917;-77
2023/09/19 08:35:59;;;;;;;;;;;;;;;19.06;100.00;99577.44;5033205;28;20435;-75
2023/09/19 08:38:29;;;;;;;;;;;;;;;19.04;100.00;99580.31;5031363;28;19948;-77
2023/09/19 08:40:59;;;;;;;;;;;;;;;19.12;100.00;99582.00;5029735;28;19935;-76
2023/09/19 08:43:24;;;;;;;;;;;;;;;19.22;100.00;99588.66;5029349;28;19928;-77
2023/09/19 08:45:50;;;;;;;;;;;;;;;19.27;100.00;99584.53;5033068;28;19917;-75
2023/09/19 08:48:28;;;;;;;;;;;;;;;19.29;100.00;99590.53;5032307;28;20468;-75
2023/09/19 08:51:07;;;;;;;;;;;;;;;19.28;100.00;99595.06;5029513;28;19921;-76
2023/09/19 08:53:46;;;;;;;;;;;;;;;19.36;100.00;99588.72;5030391;28;20436;-77
2023/09/19 08:56:13;;;;;;;;;;;;;;;19.43;100.00;99593.09;5032511;28;20036;-77
2023/09/19 08:58:47;;;;;;;;;;;;;;;19.50;100.00;99595.81;5032875;28;20314;-78
2023/09/19 09:01:15;;;;;;;;;;;;;;;19.52;100.00;99599.13;5032759;28;19983;-78
2023/09/19 09:03:43;;;;;;;;;;;;;;;19.53;100.00;99596.25;5032717;28;20435;-77
2023/09/19 09:06:13;;;;;;;;;;;;;;;19.60;100.00;99597.13;5032453;28;19924;-77
2023/09/19 09:08:39;;;;;;;;;;;;;;;19.64;100.00;99592.19;5032180;28;19921;-77
2023/09/19 09:11:07;;;;;;;;;;;;;;;19.71;100.00;99593.03;5032831;28;19925;-75
2023/09/19 09:13:35;;;;;;;;;;;;;;;19.82;100.00;99588.94;5032707;28;19928;-76
2023/09/19 09:16:00;;;;;;;;;;;;;;;19.93;100.00;99586.50;5033082;28;20373;-77
2023/09/19 09:18:25;;;;;;;;;;;;;;;19.99;100.00;99585.69;5032295;28;19927;-76
2023/09/19 09:20:51;;;;;;;;;;;;;;;20.12;100.00;99581.41;5028729;28;19921;-76
2023/09/19 09:23:16;;;;;;;;;;;;;;;20.14;100.00;99592.75;5032087;28;19925;-77
2023/09/19 09:25:56;;;;;;;;;;;;;;;20.25;100.00;99589.47;5032005;28;19921;-77
2023/09/19 09:28:26;;;;;;;;;;;;;;;20.37;100.00;99593.22;5031671;28;19925;-76
2023/09/19 09:30:51;;;;;;;;;;;;;;;20.26;100.00;99594.59;5031177;28;19922;-77
2023/09/19 09:33:18;;;;;;;;;;;;;;;20.21;100.00;99594.38;5031784;28;19925;-77
2023/09/19 09:35:53;;;;;;;;;;;;;;;20.36;100.00;99591.56;5032294;28;19921;-77
2023/09/19 09:38:19;;;;;;;;;;;;;;;20.49;100.00;99591.56;5031214;28;20431;-77
2023/09/19 09:41:15;;;;;;;;;;;;;;;20.55;100.00;99582.72;5032137;28;20017;-77
2023/09/19 09:43:36;;;;;;;;;;;;;;;20.57;100.00;99583.31;5030108;28;19928;-76
2023/09/19 09:49:24;;;;;;;;;;;;;;;20.63;100.00;99587.03;5031508;28;19936;-76
2023/09/19 09:51:57;;;;;;;;;;;;;;;20.79;100.00;99581.25;5032014;28;20063;-77
2023/09/19 09:54:23;;;;;;;;;;;;;;;20.89;100.00;99580.81;5028049;28;19921;-76
2023/09/19 09:56:58;;;;;;;;;;;;;;;21.02;100.00;99581.63;5032332;28;19971;-77
2023/09/19 09:59:43;;;;;;;;;;;;;;;21.13;100.00;99577.47;5030005;28;19928;-77
2023/09/19 10:02:11;;;;;;;;;;;;;;;21.28;100.00;99572.72;5029467;28;20380;-78
2023/09/19 10:04:51;;;;;;;;;;;;;;;21.32;100.00;99565.91;5031465;28;19944;-81
2023/09/19 10:07:35;;;;;;;;;;;;;;;21.28;100.00;99572.72;5029141;28;19952;-79
2023/09/19 10:10:22;;;;;;;;;;;;;;;21.16;100.00;99566.34;5028620;28;19928;-80
2023/09/19 10:12:48;;;;;;;;;;;;;;;21.09;100.00;99577.06;5031614;28;19932;-80
2023/09/19 10:15:20;;;;;;;;;;;;;;;21.06;100.00;99572.13;5031404;28;19921;-78
2023/09/19 10:17:46;;;;;;;;;;;;;;;21.24;100.00;99575.00;5031347;28;20012;-79
2023/09/19 10:20:22;;;;;;;;;;;;;;;21.36;100.00;99571.66;5031329;28;19995;-80
2023/09/19 10:22:57;;;;;;;;;;;;;;;21.40;100.00;99578.25;5030070;28;19925;-78
2023/09/19 10:25:25;;;;;;;;;;;;;;;21.40;100.00;99573.69;5027025;28;19921;-78
2023/09/19 10:27:53;;;;;;;;;;;;;;;21.43;100.00;99567.94;5031322;28;20370;-79
2023/09/19 10:30:20;;;;;;;;;;;;;;;21.47;100.00;99569.13;5031169;28;19922;-78
2023/09/19 10:32:47;;;;;;;;;;;;;;;21.47;100.00;99569.13;5031670;28;19924;-79
2023/09/19 10:35:14;;;;;;;;;;;;;;;21.56;100.00;99575.91;5031149;28;19921;-79
2023/09/19 10:37:41;;;;;;;;;;;;;;;21.62;100.00;99577.75;5030285;28;20012;-78
2023/09/19 10:40:08;;;;;;;;;;;;;;;21.61;100.00;99573.44;5030893;28;19924;-78
2023/09/19 10:42:37;;;;;;;;;;;;;;;21.53;100.00;99568.28;5031420;28;20328;-77
2023/09/19 10:45:07;;;;;;;;;;;;;;;21.56;100.00;99572.38;5031067;28;19924;-79
2023/09/19 10:47:32;;;;;;;;;;;;;;;21.55;100.00;99566.22;5038495;28;19921;-78
2023/09/19 10:49:58;;;;;;;;;;;;;;;21.53;100.00;99562.91;5023002;28;19921;-79
2023/09/19 10:52:24;;;;;;;;;;;;;;;21.56;100.00;99559.78;5019015;28;19926;-79
2023/09/19 10:54:54;;;;;;;;;;;;;;;21.57;100.00;99553.38;5023627;28;19922;-79
2023/09/19 10:57:23;;;;;;;;;;;;;;;21.59;100.00;99551.31;5022224;28;19944;-78
2023/09/19 11:00:23;;;;;;;;;;;;;;;21.62;100.00;99550.06;5019644;28;19928;-79
2023/09/19 11:03:08;;;;;;;;;;;;;;;21.69;100.00;99547.34;5030984;28;19944;-79
2023/09/19 11:05:34;;;;;;;;;;;;;;;21.73;100.00;99556.63;5028381;28;20301;-77
2023/09/19 11:08:05;;;;;;;;;;;;;;;21.79;100.00;99550.41;5030507;28;19921;-79
2023/09/19 11:10:50;;;;;;;;;;;;;;;21.82;100.00;99544.59;5030560;28;20007;-78
2023/09/19 11:13:30;;;;;;;;;;;;;;;21.86;100.00;99543.13;5030743;28;19975;-79
2023/09/19 11:15:59;;;;;;;;;;;;;;;21.94;100.00;99535.63;5027465;28;19943;-79
2023/09/19 11:18:40;;;;;;;;;;;;;;;22.04;100.00;99532.50;5027053;28;19975;-79
2023/09/19 11:21:24;;;;;;;;;;;;;;;22.15;100.00;99537.16;5038766;28;20293;-80
2023/09/19 11:24:09;;;;;;;;;;;;;;;22.24;100.00;99526.97;5022514;28;19921;-80
2023/09/19 11:26:51;;;;;;;;;;;;;;;22.35;100.00;99524.41;5032184;28;19925;-79
2023/09/19 11:29:27;;;;;;;;;;;;;;;22.51;100.00;99527.56;5039440;28;20019;-78
2023/09/19 11:32:01;;;;;;;;;;;;;;;22.68;100.00;99524.09;5031124;28;20011;-80
2023/09/19 11:34:39;;;;;;;;;;;;;;;22.82;100.00;99519.44;5023331;28;19936;-79
2023/09/19 11:37:13;;;;;;;;;;;;;;;23.00;100.00;99506.00;5030321;28;19921;-78
2023/09/19 11:39:38;;;;;;;;;;;;;;;23.15;100.00;99503.75;5030546;28;19917;-79
2023/09/19 11:42:23;;;;;;;;;;;;;;;23.32;100.00;99511.25;5030008;28;19928;-79
2023/09/19 11:44:51;;;;;;;;;;;;;;;23.48;100.00;99502.56;5030532;28;19917;-80
2023/09/19 11:47:18;;;;;;;;;;;;;;;23.63;100.00;99502.97;5029793;28;19929;-79
2023/09/19 11:49:44;;;;;;;;;;;;;;;23.78;100.00;99498.00;5053814;28;19922;-79
2023/09/19 11:52:09;;;;;;;;;;;;;;;23.73;100.00;99497.88;5019926;28;19928;-79
2023/09/19 11:54:41;;;;;;;;;;;;;;;23.92;100.00;99496.72;5019319;28;19921;-79
2023/09/19 11:57:07;;;;;;;;;;;;;;;24.13;100.00;99494.56;5020371;28;20024;-79
2023/09/19 11:59:33;;;;;;;;;;;;;;;24.31;100.00;99497.19;5019177;28;19921;-80
2023/09/19 12:02:03;;;;;;;;;;;;;;;24.47;100.00;99501.91;5021783;28;20439;-78
2023/09/19 12:04:43;;;;;;;;;;;;;;;24.63;100.00;99501.19;5019420;28;19921;-80
2023/09/19 12:07:15;;;;;;;;;;;;;;;24.74;100.00;99502.25;5019446;28;19966;-79
2023/09/19 12:09:46;;;;;;;;;;;;;;;24.90;100.00;99498.03;5029514;28;19968;-79
2023/09/19 12:12:19;;;;;;;;;;;;;;;25.04;100.00;99485.91;5027647;28;19972;-77
2023/09/19 12:14:48;;;;;;;;;;;;;;;25.18;100.00;99485.41;5025893;28;19925;-75
2023/09/19 12:17:13;;;;;;;;;;;;;;;25.37;100.00;99480.69;5027073;28;19925;-77
2023/09/19 12:19:39;;;;;;;;;;;;;;;25.55;100.00;99477.78;5028212;28;20468;-78
2023/09/19 12:22:05;;;;;;;;;;;;;;;25.76;100.00;99467.34;5027651;28;19921;-79
2023/09/19 12:24:31;;;;;;;;;;;;;;;25.90;100.00;99457.88;5029171;28;19925;-77
2023/09/19 12:27:01;;;;;;;;;;;;;;;25.99;100.00;99462.63;5025394;28;19921;-77
2023/09/19 12:29:27;;;;;;;;;;;;;;;26.14;100.00;99453.97;5025881;28;19932;-76
2023/09/19 12:32:03;;;;;;;;;;;;;;;26.29;100.00;99451.53;5024915;28;19921;-76
2023/09/19 12:34:35;;;;;;;;;;;;;;;26.33;100.00;99451.88;5026185;28;20386;-76
2023/09/19 12:37:21;;;;;;;;;;;;;;;26.34;100.00;99453.47;5028556;28;19999;-75
2023/09/19 12:39:49;;;;;;;;;;;;;;;26.45;100.00;99453.38;5028015;28;19929;-78
2023/09/19 12:42:15;;;;;;;;;;;;;;;26.49;100.00;99449.13;5028257;28;20012;-76
2023/09/19 12:44:43;;;;;;;;;;;;;;;26.65;100.00;99460.16;5029337;28;19928;-76